Weather at Oostende Airport - EBOS


metar: EBOS 210750Z 05007KT CAVOK 14/09 Q1004 NOSIG

9 minuten geleden, om 07:50 UTC, de wind blies met windsnelheden van 3.6 meter per seconde(8.1 mijl per uur) vanuit Noordoost nabij Oostende airport. De temperatuur was 14 °C (57 °F), en de barometerdruk was 1,004 hPa (29.65 inHg). De relatieve vochtigheid was 71.8%. Er is geen bewolking beneden 1,524 meter (5,000 voet). De zichtbaarheid was >10 kilometer (>6.2 mijl).

temperature image   windir image sky image 

Last 24 hour graph Oostende Airport - EBOS